Time;durP1;ratioP1;P1;durP2;ratioP2;P2;SDS_P1;SDS_P2;PMS_P1;PMS_P2;Temp;Humidity;BMP_temperature;BMP_pressure;BME280_temperature;BME280_humidity;BME280_pressure;Samples;Min_cycle;Max_cycle;Signal;HPM_P1;HPM_P2
2021/01/28 00:01:21;;;;;;;3.53;3.23;;;;;;;3.43;92.41;95298.50;5052458;28;20201;-75
2021/01/28 00:03:46;;;;;;;4.10;3.80;;;;;;;3.45;92.41;95299.16;5052121;28;20730;-75
2021/01/28 00:06:12;;;;;;;3.40;3.03;;;;;;;3.51;91.76;95292.69;5052059;28;20233;-75
2021/01/28 00:08:39;;;;;;;3.73;3.43;;;;;;;3.54;91.77;95300.06;5052441;28;20221;-77
2021/01/28 00:11:06;;;;;;;3.63;3.33;;;;;;;3.50;92.01;95291.88;5052284;28;20218;-76
2021/01/28 00:13:32;;;;;;;4.03;3.60;;;;;;;3.56;91.44;95298.16;5052285;28;20617;-77
2021/01/28 00:15:58;;;;;;;3.60;3.30;;;;;;;3.56;91.09;95285.44;5051988;28;20224;-76
2021/01/28 00:18:24;;;;;;;4.37;3.40;;;;;;;3.56;91.48;95282.91;5052127;28;20316;-77
2021/01/28 00:20:50;;;;;;;3.80;3.50;;;;;;;3.51;91.75;95285.06;5051950;28;20731;-76
2021/01/28 00:23:17;;;;;;;3.67;3.37;;;;;;;3.49;91.75;95290.28;5052254;28;20202;-77
2021/01/28 00:25:44;;;;;;;3.73;3.43;;;;;;;3.55;91.31;95287.19;5052162;28;20209;-76
2021/01/28 00:28:13;;;;;;;4.37;3.40;;;;;;;3.57;91.48;95279.41;5052086;28;20233;-77
2021/01/28 00:30:41;;;;;;;4.57;3.40;;;;;;;3.62;90.80;95284.88;5052335;28;20248;-76
2021/01/28 00:33:10;;;;;;;3.90;3.50;;;;;;;3.60;90.61;95279.94;5051994;28;20591;-75
2021/01/28 00:35:38;;;;;;;3.83;3.43;;;;;;;3.56;91.28;95277.81;5051845;28;20607;-77
2021/01/28 00:38:06;;;;;;;3.53;3.23;;;;;;;3.58;91.55;95278.47;5052047;28;20228;-75
2021/01/28 00:40:33;;;;;;;4.13;3.73;;;;;;;3.61;90.88;95284.09;5051971;28;20692;-76
2021/01/28 00:43:00;;;;;;;3.97;3.60;;;;;;;3.62;90.54;95278.06;5051641;28;20208;-76
2021/01/28 00:45:29;;;;;;;3.87;3.53;;;;;;;3.64;90.16;95276.19;5051506;28;20201;-75
2021/01/28 00:47:56;;;;;;;3.80;3.50;;;;;;;3.66;90.60;95270.91;5051460;28;20629;-76
2021/01/28 00:50:26;;;;;;;3.90;3.60;;;;;;;3.68;90.10;95274.91;5051928;28;20559;-77
2021/01/28 00:52:52;;;;;;;3.60;3.30;;;;;;;3.70;90.35;95269.69;5051306;28;20201;-77
2021/01/28 00:55:19;;;;;;;3.50;3.20;;;;;;;3.74;89.29;95273.56;5051279;28;20222;-76
2021/01/28 00:57:46;;;;;;;3.63;3.33;;;;;;;3.75;89.58;95270.88;5051536;28;20228;-77
2021/01/28 01:00:17;;;;;;;3.40;3.10;;;;;;;3.71;89.89;95264.47;5051511;28;20193;-77
2021/01/28 01:02:44;;;;;;;3.27;2.97;;;;;;;3.75;89.40;95265.78;5051631;28;20259;-75
2021/01/28 01:05:12;;;;;;;3.53;3.23;;;;;;;3.73;89.64;95266.88;5051748;28;20198;-77
2021/01/28 01:07:38;;;;;;;3.60;3.23;;;;;;;3.70;90.23;95265.41;5051688;28;20282;-76
2021/01/28 01:10:07;;;;;;;3.03;2.83;;;;;;;3.68;90.48;95263.94;5051293;28;20208;-76
2021/01/28 01:12:32;;;;;;;3.40;3.10;;;;;;;3.70;90.12;95267.94;5051531;28;20205;-75
2021/01/28 01:14:58;;;;;;;3.60;3.30;;;;;;;3.71;90.46;95261.91;5051272;28;20810;-77
2021/01/28 01:17:25;;;;;;;3.53;3.23;;;;;;;3.69;90.38;95263.81;5051574;28;20308;-76
2021/01/28 01:19:52;;;;;;;3.50;3.20;;;;;;;3.63;90.79;95253.41;5051190;28;20669;-76
2021/01/28 01:22:18;;;;;;;3.70;3.40;;;;;;;3.65;90.91;95259.97;5050938;28;20207;-77
2021/01/28 01:24:44;;;;;;;3.23;2.93;;;;;;;3.66;90.52;95261.53;5050799;28;20193;-76
2021/01/28 01:27:10;;;;;;;3.30;3.00;;;;;;;3.71;90.41;95264.47;5050849;28;20610;-76
2021/01/28 01:29:36;;;;;;;3.40;3.10;;;;;;;3.73;90.47;95267.66;5051193;28;20296;-76
2021/01/28 01:32:02;;;;;;;3.00;2.80;;;;;;;3.67;90.92;95262.34;5051039;28;20201;-76
2021/01/28 01:34:28;;;;;;;3.40;3.10;;;;;;;3.76;89.94;95266.59;5050629;28;20225;-76
2021/01/28 01:36:54;;;;;;;2.90;2.70;;;;;;;3.78;90.28;95269.81;5050467;28;20221;-74
2021/01/28 01:39:20;;;;;;;3.40;3.10;;;;;;;3.79;90.02;95262.03;5050860;28;20771;-76
2021/01/28 01:41:46;;;;;;;2.87;2.63;;;;;;;3.79;89.81;95273.94;5051000;28;20201;-76
2021/01/28 01:44:12;;;;;;;3.10;2.90;;;;;;;3.81;89.96;95272.06;5050227;28;20343;-76
2021/01/28 01:46:38;;;;;;;3.30;3.00;;;;;;;3.88;89.18;95267.97;5050617;28;20232;-76
2021/01/28 01:49:08;;;;;;;3.20;2.90;;;;;;;3.89;88.95;95261.16;5050363;28;20267;-76
2021/01/28 01:51:37;;;;;;;3.23;2.97;;;;;;;3.91;88.93;95260.06;5050759;28;20209;-75
2021/01/28 01:54:09;;;;;;;3.33;2.83;;;;;;;3.85;89.25;95262.41;5050185;28;20221;-76
2021/01/28 01:56:40;;;;;;;3.23;2.93;;;;;;;3.91;89.12;95267.69;5050254;28;20790;-76
2021/01/28 01:59:08;;;;;;;3.73;3.10;;;;;;;3.94;88.73;95266.63;5050417;28;20201;-75
2021/01/28 02:01:38;;;;;;;2.90;2.70;;;;;;;3.96;88.89;95267.28;5050190;28;20598;-77
2021/01/28 02:04:06;;;;;;;3.17;2.87;;;;;;;3.96;88.97;95265.53;5049768;28;20193;-76
2021/01/28 02:06:38;;;;;;;2.93;2.73;;;;;;;3.95;89.00;95255.50;5050560;28;20209;-76
2021/01/28 02:09:09;;;;;;;2.53;2.33;;;;;;;3.92;89.13;95254.03;5050191;28;20197;-75
2021/01/28 02:11:36;;;;;;;2.93;2.73;;;;;;;3.89;89.68;95248.41;5050267;28;20295;-77
2021/01/28 02:14:04;;;;;;;2.93;2.73;;;;;;;3.86;90.48;95243.59;5050317;28;20210;-76
2021/01/28 02:16:33;;;;;;;2.93;2.73;;;;;;;3.90;89.93;95245.72;5050422;28;20263;-76
2021/01/28 02:19:01;;;;;;;2.80;2.60;;;;;;;3.93;89.41;95237.81;5049815;28;20210;-76
2021/01/28 02:21:30;;;;;;;3.23;2.93;;;;;;;3.98;89.29;95237.38;5049744;28;20209;-76
2021/01/28 02:24:26;;;;;;;2.90;2.70;;;;;;;3.98;89.33;95239.94;5050012;28;20340;-76
2021/01/28 02:26:54;;;;;;;3.03;2.73;;;;;;;3.99;88.85;95236.44;5050221;28;20774;-76
2021/01/28 02:29:22;;;;;;;3.13;2.90;;;;;;;3.93;89.89;95235.25;5050143;28;20201;-76
2021/01/28 02:31:51;;;;;;;3.03;2.73;;;;;;;3.86;91.00;95231.66;5050192;28;20201;-77
2021/01/28 02:34:18;;;;;;;2.90;2.67;;;;;;;3.90;89.95;95229.66;5049743;28;20217;-77
2021/01/28 02:36:46;;;;;;;2.90;2.70;;;;;;;3.86;90.67;95225.78;5050378;28;20267;-76
2021/01/28 02:39:15;;;;;;;2.50;2.30;;;;;;;3.89;90.36;95230.59;5050149;28;20237;-76
2021/01/28 02:41:43;;;;;;;2.67;2.47;;;;;;;3.90;90.72;95238.09;5050001;28;20202;-76
2021/01/28 02:44:10;;;;;;;3.07;2.77;;;;;;;3.88;90.85;95228.97;5049559;28;20217;-77
2021/01/28 02:46:36;;;;;;;2.70;2.50;;;;;;;3.86;91.09;95223.22;5049893;28;20550;-75
2021/01/28 02:49:02;;;;;;;2.67;2.47;;;;;;;3.84;91.46;95227.69;5050345;28;20260;-76
2021/01/28 02:51:28;;;;;;;2.50;2.30;;;;;;;3.86;91.05;95226.59;5050221;28;20796;-76
2021/01/28 02:53:55;;;;;;;2.90;2.70;;;;;;;3.82;91.25;95225.28;5049613;28;20228;-76
2021/01/28 02:56:22;;;;;;;2.90;2.70;;;;;;;3.83;91.44;95226.09;5049565;28;20213;-76
2021/01/28 02:58:49;;;;;;;2.70;2.50;;;;;;;3.80;91.63;95224.63;5049524;28;20716;-76
2021/01/28 03:01:18;;;;;;;2.33;2.20;;;;;;;3.80;91.81;95215.25;5049531;28;20202;-76
2021/01/28 03:03:44;;;;;;;3.57;2.43;;;;;;;3.85;91.18;95212.25;5050355;28;20600;-75
2021/01/28 03:06:11;;;;;;;2.70;2.40;;;;;;;3.85;91.41;95206.38;5050007;28;20198;-76
2021/01/28 03:08:38;;;;;;;3.10;2.80;;;;;;;3.90;91.24;95199.09;5049782;28;20567;-77
2021/01/28 03:11:04;;;;;;;2.60;2.33;;;;;;;3.92;91.12;95204.84;5049783;28;20213;-76
2021/01/28 03:13:31;;;;;;;2.50;2.30;;;;;;;3.95;90.51;95195.16;5049384;28;20210;-76
2021/01/28 03:15:58;;;;;;;2.27;2.07;;;;;;;3.94;90.56;95195.31;5051169;28;20244;-76
2021/01/28 03:18:25;;;;;;;2.23;2.03;;;;;;;3.86;91.38;95190.13;5053291;28;20229;-75
2021/01/28 03:20:52;;;;;;;2.60;2.40;;;;;;;3.88;91.42;95183.16;5053506;28;20228;-76
2021/01/28 03:23:19;;;;;;;2.37;2.17;;;;;;;3.86;91.55;95183.28;5053369;28;20605;-76
2021/01/28 03:25:45;;;;;;;3.07;2.30;;;;;;;3.88;91.00;95183.94;5052863;28;20213;-76
2021/01/28 03:28:11;;;;;;;3.57;2.40;;;;;;;3.92;90.58;95175.09;5053026;28;20236;-77
2021/01/28 03:30:41;;;;;;;2.40;2.20;;;;;;;3.94;90.72;95174.94;5053241;28;20209;-76
2021/01/28 03:33:10;;;;;;;2.50;2.00;;;;;;;3.93;91.00;95174.13;5053075;28;20213;-76
2021/01/28 03:35:37;;;;;;;3.70;2.10;;;;;;;3.95;90.37;95177.34;5052701;28;20239;-76
2021/01/28 03:38:05;;;;;;;2.23;2.03;;;;;;;4.01;89.86;95176.75;5052974;28;20291;-76
2021/01/28 03:40:33;;;;;;;2.10;1.90;;;;;;;3.98;90.38;95182.16;5053121;28;20201;-76
2021/01/28 03:42:59;;;;;;;1.90;1.80;;;;;;;4.03;90.12;95179.16;5052738;28;20210;-76
2021/01/28 03:45:27;;;;;;;2.10;2.00;;;;;;;4.07;89.72;95175.34;5052746;28;20212;-76
2021/01/28 03:47:53;;;;;;;2.33;2.13;;;;;;;4.09;89.49;95176.00;5052998;28;20619;-76
2021/01/28 03:50:22;;;;;;;2.07;1.87;;;;;;;4.08;89.63;95182.84;5052940;28;20235;-76
2021/01/28 03:52:49;;;;;;;2.27;2.07;;;;;;;4.13;89.20;95167.94;5052899;28;20240;-76
2021/01/28 03:55:15;;;;;;;2.80;2.20;;;;;;;4.12;89.31;95170.63;5052230;28;20696;-78
2021/01/28 03:57:41;;;;;;;2.20;2.00;;;;;;;4.17;89.09;95165.91;5052426;28;20224;-76
2021/01/28 04:00:09;;;;;;;2.20;2.00;;;;;;;4.15;89.74;95158.41;5052587;28;20609;-76
2021/01/28 04:02:35;;;;;;;2.30;2.10;;;;;;;4.16;89.22;95141.38;5052487;28;20201;-76
2021/01/28 04:05:01;;;;;;;2.37;2.17;;;;;;;4.14;89.56;95150.91;5052215;28;20202;-76
2021/01/28 04:07:27;;;;;;;2.20;2.00;;;;;;;4.07;90.60;95142.25;5052628;28;20226;-76
2021/01/28 04:09:53;;;;;;;2.60;2.30;;;;;;;4.06;90.62;95140.66;5052385;28;20289;-76
2021/01/28 04:12:19;;;;;;;2.20;2.10;;;;;;;4.09;90.74;95133.50;5052656;28;20201;-76
2021/01/28 04:14:45;;;;;;;2.07;1.90;;;;;;;4.12;90.48;95125.56;5052353;28;20282;-76
2021/01/28 04:17:11;;;;;;;4.87;2.30;;;;;;;4.10;90.67;95122.38;5052695;28;20782;-77
2021/01/28 04:19:37;;;;;;;2.30;2.10;;;;;;;4.11;90.77;95118.09;5052719;28;20224;-77
2021/01/28 04:22:03;;;;;;;2.60;2.20;;;;;;;4.11;90.63;95123.19;5052172;28;20206;-76
2021/01/28 04:24:29;;;;;;;2.10;1.90;;;;;;;4.14;90.70;95120.34;5051961;28;20202;-75
2021/01/28 04:26:56;;;;;;;3.10;2.30;;;;;;;4.14;90.48;95126.22;5051633;28;20271;-76
2021/01/28 04:29:22;;;;;;;2.43;2.23;;;;;;;4.15;90.76;95116.84;5052126;28;20206;-78
2021/01/28 04:31:48;;;;;;;2.17;2.03;;;;;;;4.10;91.02;95109.66;5052094;28;20753;-77
2021/01/28 04:34:14;;;;;;;2.20;2.00;;;;;;;4.09;91.73;95112.34;5051869;28;20229;-76
2021/01/28 04:36:39;;;;;;;2.53;2.20;;;;;;;4.03;92.04;95106.09;5051687;28;20205;-76
2021/01/28 04:39:06;;;;;;;2.33;2.13;;;;;;;3.89;94.10;95108.34;5051928;28;20212;-75
2021/01/28 04:41:33;;;;;;;2.23;2.03;;;;;;;3.82;95.08;95100.53;5052219;28;20699;-76
2021/01/28 04:44:01;;;;;;;3.27;2.17;;;;;;;3.84;95.38;95097.84;5051944;28;20206;-77
2021/01/28 04:46:30;;;;;;;2.40;2.13;;;;;;;3.80;95.75;95084.59;5051883;28;20583;-77
2021/01/28 04:48:57;;;;;;;2.77;2.50;;;;;;;3.83;95.77;95088.59;5051828;28;20703;-76
2021/01/28 04:51:26;;;;;;;2.33;2.13;;;;;;;3.90;95.40;95082.75;5051425;28;20213;-76
2021/01/28 04:53:55;;;;;;;3.07;2.00;;;;;;;3.91;95.24;95074.16;5051721;28;20226;-76
2021/01/28 04:56:25;;;;;;;2.20;2.00;;;;;;;3.88;95.77;95066.00;5051784;28;20202;-78
2021/01/28 04:58:53;;;;;;;2.10;1.97;;;;;;;3.86;96.25;95058.53;5051463;28;20665;-76
2021/01/28 05:01:20;;;;;;;2.30;2.10;;;;;;;3.83;96.61;95042.75;5051714;28;20633;-76
2021/01/28 05:03:50;;;;;;;2.20;2.00;;;;;;;3.79;97.68;95040.50;5051494;28;20205;-76
2021/01/28 05:06:16;;;;;;;2.60;2.20;;;;;;;3.85;96.57;95036.56;5051463;28;20201;-77
2021/01/28 05:08:42;;;;;;;2.20;2.00;;;;;;;3.89;96.81;95024.31;5051231;28;20275;-77
2021/01/28 05:11:20;;;;;;;3.77;2.50;;;;;;;3.89;96.36;95020.03;5051370;28;20213;-77
2021/01/28 05:13:46;;;;;;;3.03;2.10;;;;;;;3.89;97.16;95009.06;5051372;28;20201;-76
2021/01/28 05:16:23;;;;;;;2.30;2.03;;;;;;;3.89;97.27;95011.59;5051573;28;20604;-76
2021/01/28 05:18:58;;;;;;;2.80;2.60;;;;;;;3.92;96.74;95004.47;5051157;28;20205;-76
2021/01/28 05:21:26;;;;;;;2.30;2.10;;;;;;;3.96;96.80;94999.88;5051277;28;20695;-76
2021/01/28 05:24:00;;;;;;;3.10;2.17;;;;;;;3.93;97.16;95002.72;5051054;28;20193;-76
2021/01/28 05:26:31;;;;;;;2.50;2.17;;;;;;;3.86;97.93;94992.31;5051119;28;20192;-76
2021/01/28 05:29:13;;;;;;;2.93;2.07;;;;;;;3.91;97.97;94986.78;5051301;28;20197;-76
2021/01/28 05:31:40;;;;;;;2.10;1.90;;;;;;;3.87;98.57;94976.09;5050890;28;20680;-75
2021/01/28 05:34:08;;;;;;;3.03;1.93;;;;;;;3.93;97.97;94982.34;5050589;28;20840;-76
2021/01/28 05:36:34;;;;;;;3.23;2.10;;;;;;;3.89;98.64;94986.13;5050606;28;20201;-76
2021/01/28 05:39:16;;;;;;;1.90;1.80;;;;;;;3.80;99.75;94981.00;5050336;28;20202;-76
2021/01/28 05:41:46;;;;;;;2.20;1.87;;;;;;;3.82;100.00;94970.69;5050881;28;20252;-76
2021/01/28 05:44:19;;;;;;;2.50;1.97;;;;;;;3.86;99.80;94976.25;5050605;28;20228;-76
2021/01/28 05:46:59;;;;;;;2.00;1.90;;;;;;;3.91;99.52;94979.16;5050783;28;20232;-77
2021/01/28 05:49:25;;;;;;;2.17;1.97;;;;;;;3.94;99.27;94966.91;5051044;28;20201;-77
2021/01/28 05:51:51;;;;;;;1.90;1.80;;;;;;;3.97;98.92;94958.19;5050810;28;20668;-76
2021/01/28 05:54:19;;;;;;;1.93;1.80;;;;;;;3.95;99.16;94957.53;5050473;28;20217;-77
2021/01/28 05:56:57;;;;;;;3.70;1.97;;;;;;;3.97;99.39;94953.88;5050267;28;20623;-76
2021/01/28 05:59:34;;;;;;;3.07;2.17;;;;;;;3.95;99.37;94958.34;5046134;28;20201;-76
2021/01/28 06:02:30;;;;;;;2.13;2.00;;;;;;;4.00;99.03;94948.50;5052257;28;20212;-76
2021/01/28 06:05:13;;;;;;;2.03;1.90;;;;;;;4.02;98.81;94950.91;5056719;28;20194;-76
2021/01/28 06:08:08;;;;;;;4.20;3.50;;;;;;;4.10;97.74;94950.91;5050778;28;20247;-76
2021/01/28 06:11:11;;;;;;;3.20;2.30;;;;;;;4.14;97.60;94942.81;5049798;28;20255;-77
2021/01/28 06:14:10;;;;;;;3.07;2.50;;;;;;;4.10;98.15;94944.06;5049477;28;20212;-76
2021/01/28 06:16:42;;;;;;;2.50;2.30;;;;;;;4.13;98.10;94955.72;5049140;28;20201;-76
2021/01/28 06:19:37;;;;;;;2.63;2.37;;;;;;;4.21;97.38;94952.41;5049392;28;20201;-77
2021/01/28 06:22:13;;;;;;;2.37;2.10;;;;;;;4.24;96.94;94942.69;5049932;28;20777;-75
2021/01/28 06:24:52;;;;;;;3.70;2.37;;;;;;;4.25;96.73;94940.94;5050074;28;20208;-77
2021/01/28 06:27:46;;;;;;;3.00;2.23;;;;;;;4.27;96.84;94944.13;5048799;28;20638;-76
2021/01/28 06:30:20;;;;;;;3.37;2.23;;;;;;;4.31;96.61;94930.94;5049206;28;20204;-76
2021/01/28 06:33:02;;;;;;;3.20;2.60;;;;;;;4.35;96.20;94927.13;5049668;28;20201;-76
2021/01/28 06:35:49;;;;;;;2.30;2.10;;;;;;;4.38;95.84;94921.75;5049982;28;20225;-76
2021/01/28 06:38:28;;;;;;;3.30;2.67;;;;;;;4.37;95.95;94917.59;5050102;28;20351;-76
2021/01/28 06:40:58;;;;;;;3.83;2.90;;;;;;;4.37;95.81;94912.50;5050303;28;20205;-76
2021/01/28 06:43:29;;;;;;;3.50;2.90;;;;;;;4.41;95.53;94915.53;5050548;28;20205;-76
2021/01/28 06:45:59;;;;;;;3.47;2.83;;;;;;;4.43;95.33;94909.31;5049886;28;20553;-76
2021/01/28 06:48:30;;;;;;;2.77;2.57;;;;;;;4.45;95.17;94914.25;5050142;28;20578;-76
2021/01/28 06:51:04;;;;;;;2.77;2.57;;;;;;;4.46;95.00;94903.09;5051797;28;20197;-76
2021/01/28 06:53:43;;;;;;;3.20;2.70;;;;;;;4.49;94.62;94908.69;5053292;28;20221;-76
2021/01/28 06:56:15;;;;;;;6.33;3.00;;;;;;;4.50;95.03;94894.19;5053449;28;20198;-76
2021/01/28 06:58:53;;;;;;;5.60;3.43;;;;;;;4.49;95.65;94900.25;5053405;28;20225;-77
2021/01/28 07:01:25;;;;;;;4.53;2.60;;;;;;;4.54;94.98;94897.25;5053242;28;20201;-77
2021/01/28 07:04:12;;;;;;;4.10;2.57;;;;;;;4.57;95.27;94891.84;5073477;28;20573;-76
2021/01/28 07:06:45;;;;;;;2.70;2.50;;;;;;;4.59;95.69;94900.13;5073320;28;20211;-76
2021/01/28 07:09:23;;;;;;;3.40;2.60;;;;;;;4.55;96.38;94897.09;5073545;28;20196;-76
2021/01/28 07:11:54;;;;;;;3.60;2.67;;;;;;;4.61;95.36;94895.66;5073215;28;20210;-75
2021/01/28 07:14:20;;;;;;;2.60;2.40;;;;;;;4.58;95.84;94875.59;5073205;28;20711;-76
2021/01/28 07:16:55;;;;;;;4.37;2.80;;;;;;;4.61;95.25;94882.94;5073556;28;20229;-77
2021/01/28 07:19:26;;;;;;;2.73;2.10;;;;;;;4.62;96.34;94885.28;5073210;28;20212;-76
2021/01/28 07:21:54;;;;;;;2.53;2.30;;;;;;;4.67;95.28;94880.53;5073334;28;20205;-76
2021/01/28 07:24:33;;;;;;;2.60;2.40;;;;;;;4.69;95.37;94881.16;5072677;28;20206;-76
2021/01/28 07:27:01;;;;;;;3.00;2.63;;;;;;;4.74;94.49;94873.84;5072847;28;20226;-76
2021/01/28 07:29:54;;;;;;;6.17;2.80;;;;;;;4.74;94.82;94866.19;5073170;28;20250;-76
2021/01/28 07:32:57;;;;;;;5.33;2.90;;;;;;;4.70;95.95;94856.47;5073504;28;20266;-76
2021/01/28 07:35:32;;;;;;;3.50;2.33;;;;;;;4.70;95.99;94871.78;5072945;28;20220;-76
2021/01/28 07:38:39;;;;;;;3.43;2.60;;;;;;;4.67;95.98;94857.59;5073402;28;20226;-77
2021/01/28 07:41:19;;;;;;;4.50;2.60;;;;;;;4.64;96.22;94842.59;5072949;28;20197;-78
2021/01/28 07:43:47;;;;;;;2.97;2.40;;;;;;;4.61;97.38;94842.13;5072995;28;20204;-79
2021/01/28 07:46:17;;;;;;;2.83;2.00;;;;;;;4.62;96.72;94839.41;5073149;28;20201;-78
2021/01/28 07:48:45;;;;;;;3.77;2.37;;;;;;;4.64;96.95;94836.69;5073371;28;20708;-77
2021/01/28 07:51:29;;;;;;;6.00;2.50;;;;;;;4.60;97.47;94843.09;5073082;28;20208;-78
2021/01/28 07:53:56;;;;;;;4.50;2.37;;;;;;;4.63;97.14;94841.00;5073119;28;20212;-78
2021/01/28 07:56:46;;;;;;;5.50;2.53;;;;;;;4.65;100.00;94828.91;5073095;28;20200;-77
2021/01/28 07:59:17;;;;;;;4.30;2.27;;;;;;;4.94;100.00;94828.44;5044149;28;20236;-75
2021/01/28 08:01:47;;;;;;;4.10;2.00;;;;;;;5.24;100.00;94834.59;5051874;28;20206;-76
2021/01/28 08:04:21;;;;;;;5.03;1.93;;;;;;;5.48;98.68;94831.22;5053340;28;20201;-77
2021/01/28 08:06:48;;;;;;;3.63;1.97;;;;;;;5.71;97.73;94816.78;5052909;28;20225;-76
2021/01/28 08:09:16;;;;;;;7.60;2.33;;;;;;;5.68;92.77;94812.00;5052854;28;20197;-77
2021/01/28 08:11:48;;;;;;;3.70;1.90;;;;;;;5.83;95.11;94820.56;5052948;28;20581;-78
2021/01/28 08:14:14;;;;;;;5.13;2.03;;;;;;;5.87;93.27;94814.16;5052958;28;20221;-78
2021/01/28 08:16:42;;;;;;;4.77;1.90;;;;;;;5.73;90.06;94808.97;5053154;28;20259;-76
2021/01/28 08:19:13;;;;;;;7.43;2.47;;;;;;;5.57;90.89;94798.81;5052644;28;20194;-76
2021/01/28 08:21:39;;;;;;;6.43;1.90;;;;;;;5.37;92.35;94788.19;5052226;28;20292;-76
2021/01/28 08:24:19;;;;;;;4.40;2.33;;;;;;;5.22;93.72;94793.94;5052344;28;20198;-76
2021/01/28 08:26:46;;;;;;;3.43;1.97;;;;;;;5.22;94.03;94793.94;5052422;28;20605;-78
2021/01/28 08:29:15;;;;;;;2.40;1.83;;;;;;;5.12;95.17;94783.13;5052799;28;20197;-76
2021/01/28 08:31:43;;;;;;;2.93;1.83;;;;;;;5.02;96.29;94782.50;5052698;28;20244;-76
2021/01/28 08:34:15;;;;;;;4.10;1.67;;;;;;;4.97;97.41;94776.31;5052107;28;20217;-76
2021/01/28 08:36:48;;;;;;;3.70;1.73;;;;;;;4.97;97.40;94771.19;5051698;28;20255;-76
2021/01/28 08:39:18;;;;;;;3.00;1.20;;;;;;;4.90;97.58;94770.25;5051975;28;20229;-76
2021/01/28 08:41:46;;;;;;;2.10;1.40;;;;;;;4.79;98.49;94761.19;5051866;28;20202;-76
2021/01/28 08:44:15;;;;;;;1.30;1.20;;;;;;;4.84;98.88;94762.28;5051559;28;20209;-76
2021/01/28 08:46:43;;;;;;;1.57;1.20;;;;;;;4.88;98.29;94755.09;5051789;28;20197;-77
2021/01/28 08:49:14;;;;;;;1.83;1.10;;;;;;;4.97;97.99;94748.25;5051980;28;20599;-76
2021/01/28 08:51:46;;;;;;;2.20;1.40;;;;;;;4.93;98.36;94741.88;5052578;28;20201;-80
2021/01/28 08:54:20;;;;;;;1.20;1.10;;;;;;;4.95;97.95;94743.31;5052466;28;20255;-80
2021/01/28 08:56:49;;;;;;;1.50;1.17;;;;;;;4.92;98.53;94735.97;5052048;28;20205;-80
2021/01/28 08:59:18;;;;;;;1.20;1.10;;;;;;;4.92;98.33;94735.19;5052149;28;20197;-78
2021/01/28 09:01:47;;;;;;;1.20;1.10;;;;;;;4.95;98.32;94734.84;5052535;28;20205;-78
2021/01/28 09:04:21;;;;;;;1.30;1.20;;;;;;;4.95;98.41;94724.66;5052171;28;20208;-78
2021/01/28 09:06:48;;;;;;;1.10;1.00;;;;;;;5.00;97.68;94732.63;5052589;28;20688;-79
2021/01/28 09:09:23;;;;;;;3.00;1.20;;;;;;;5.01;98.39;94724.78;5052630;28;20247;-78
2021/01/28 09:11:51;;;;;;;3.17;1.30;;;;;;;5.01;98.21;94716.31;5052628;28;20300;-78
2021/01/28 09:14:29;;;;;;;1.43;1.33;;;;;;;5.02;97.61;94720.47;5051757;28;20596;-78
2021/01/28 09:16:59;;;;;;;1.47;1.27;;;;;;;4.96;98.75;94724.50;5052278;28;20275;-80
2021/01/28 09:19:27;;;;;;;2.03;1.50;;;;;;;5.05;98.32;94720.16;5052134;28;20284;-77
2021/01/28 09:21:56;;;;;;;3.00;1.23;;;;;;;5.11;98.04;94724.59;5052050;28;20668;-80
2021/01/28 09:24:35;;;;;;;1.67;1.23;;;;;;;5.13;97.91;94715.84;5051240;28;20197;-78
2021/01/28 09:27:25;;;;;;;1.20;1.10;;;;;;;5.11;97.85;94712.66;5051814;28;20598;-78
2021/01/28 09:29:55;;;;;;;2.03;1.00;;;;;;;5.09;98.40;94714.56;5051944;28;20278;-76
2021/01/28 09:32:35;;;;;;;1.30;0.93;;;;;;;5.13;98.25;94713.28;5051195;28;20194;-76
2021/01/28 09:35:09;;;;;;;1.27;1.00;;;;;;;5.15;98.00;94720.78;5051263;28;20213;-78
2021/01/28 09:37:37;;;;;;;2.83;0.90;;;;;;;5.28;100.00;94713.38;5051757;28;20312;-80
2021/01/28 09:40:24;;;;;;;2.67;0.77;;;;;;;5.43;96.94;94706.63;5052001;28;20201;-76
2021/01/28 09:42:51;;;;;;;1.27;1.10;;;;;;;5.45;96.59;94702.16;5050671;28;20198;-78
2021/01/28 09:45:26;;;;;;;1.10;1.00;;;;;;;5.44;95.90;94699.75;5051146;28;20205;-78
2021/01/28 09:47:56;;;;;;;1.10;1.00;;;;;;;5.34;96.31;94694.06;5051898;28;20217;-78
2021/01/28 09:50:23;;;;;;;0.80;0.80;;;;;;;5.30;96.89;94690.25;5049044;28;20453;-78
2021/01/28 09:52:52;;;;;;;0.90;0.90;;;;;;;5.22;98.40;94678.31;5050275;28;20235;-78
2021/01/28 09:55:21;;;;;;;1.10;0.87;;;;;;;5.17;98.37;94683.94;5049338;28;20221;-77
2021/01/28 09:57:47;;;;;;;1.33;1.00;;;;;;;5.20;98.63;94675.91;5050069;28;20228;-78
2021/01/28 10:00:16;;;;;;;1.17;1.03;;;;;;;5.22;98.31;94666.34;5050172;28;20583;-78
2021/01/28 10:02:45;;;;;;;1.00;1.00;;;;;;;5.21;99.19;94656.31;5049595;28;20209;-78
2021/01/28 10:05:14;;;;;;;1.20;1.10;;;;;;;5.24;98.73;94645.78;5049827;28;20193;-78
2021/01/28 10:07:40;;;;;;;0.87;0.87;;;;;;;5.26;98.97;94636.19;5049953;28;20221;-78
2021/01/28 10:10:07;;;;;;;1.03;1.03;;;;;;;5.26;99.16;94635.41;5049668;28;20205;-78
2021/01/28 10:12:35;;;;;;;1.27;1.10;;;;;;;5.22;99.51;94633.19;5049917;28;20247;-78
2021/01/28 10:15:01;;;;;;;1.00;1.00;;;;;;;5.24;99.40;94622.00;5049223;28;20275;-78
2021/01/28 10:17:27;;;;;;;1.90;0.90;;;;;;;5.24;99.53;94611.81;5069381;28;20217;-77
2021/01/28 10:19:53;;;;;;;1.30;1.03;;;;;;;5.30;99.24;94606.84;5069351;28;20196;-78
2021/01/28 10:22:21;;;;;;;3.13;1.20;;;;;;;5.32;98.99;94594.72;5069777;28;20201;-76
2021/01/28 10:24:47;;;;;;;2.20;1.00;;;;;;;5.34;98.88;94590.22;5070521;28;20621;-77
2021/01/28 10:27:13;;;;;;;3.20;1.10;;;;;;;5.33;98.90;94582.75;5075764;28;20220;-76
2021/01/28 10:29:43;;;;;;;1.27;1.10;;;;;;;5.33;98.94;94578.44;5075743;28;20583;-76
2021/01/28 10:32:11;;;;;;;1.20;1.10;;;;;;;5.34;99.15;94574.91;5076152;28;20207;-76
2021/01/28 10:34:37;;;;;;;1.87;1.30;;;;;;;5.35;99.06;94552.75;5057572;28;20217;-76
2021/01/28 10:37:03;;;;;;;1.30;1.20;;;;;;;5.44;98.46;94557.63;5055711;28;20335;-77
2021/01/28 10:39:29;;;;;;;1.83;1.50;;;;;;;5.43;98.86;94547.56;5056903;28;20580;-78
2021/01/28 10:42:01;;;;;;;4.20;1.40;;;;;;;5.42;99.19;94556.19;5056310;28;20246;-77
2021/01/28 10:44:29;;;;;;;1.30;1.20;;;;;;;5.37;99.06;94548.28;5056436;28;20204;-79
2021/01/28 10:46:56;;;;;;;1.53;1.20;;;;;;;5.33;99.87;94542.72;5056814;28;20216;-78
2021/01/28 10:49:22;;;;;;;1.67;1.10;;;;;;;5.31;100.00;94544.63;5056095;28;20201;-79
2021/01/28 10:51:49;;;;;;;1.30;1.20;;;;;;;5.34;100.00;94535.84;5056711;28;20193;-79
2021/01/28 10:54:20;;;;;;;1.33;1.03;;;;;;;5.31;100.00;94528.53;5057108;28;20645;-80
2021/01/28 10:56:45;;;;;;;1.23;1.10;;;;;;;5.37;99.77;94530.41;5077634;28;20201;-79
2021/01/28 10:59:11;;;;;;;2.50;1.27;;;;;;;5.41;99.65;94527.31;5078126;28;20209;-78
2021/01/28 11:01:38;;;;;;;1.40;1.20;;;;;;;5.48;99.47;94519.78;5072723;28;20209;-78
2021/01/28 11:04:12;;;;;;;3.70;2.67;;;;;;;5.42;100.00;94528.13;5057398;28;20213;-78
2021/01/28 11:06:38;;;;;;;1.67;1.40;;;;;;;5.46;99.51;94526.81;5041248;28;20692;-80
2021/01/28 11:09:07;;;;;;;1.70;1.30;;;;;;;5.43;100.00;94527.16;5057445;28;20198;-80
2021/01/28 11:11:32;;;;;;;1.40;1.30;;;;;;;5.37;100.00;94522.75;5057251;28;20218;-79
2021/01/28 11:13:58;;;;;;;1.73;1.10;;;;;;;5.34;100.00;94503.47;5057684;28;20212;-80
2021/01/28 11:16:34;;;;;;;2.43;1.20;;;;;;;5.31;100.00;94503.00;5056558;28;20716;-79
2021/01/28 11:19:03;;;;;;;2.77;1.20;;;;;;;5.30;100.00;94483.56;5056485;28;20204;-79
2021/01/28 11:21:30;;;;;;;1.37;1.13;;;;;;;5.26;100.00;94475.44;5056954;28;20205;-79
2021/01/28 11:23:58;;;;;;;5.13;1.10;;;;;;;5.32;100.00;94472.22;5056551;28;20201;-79
2021/01/28 11:26:24;;;;;;;2.43;1.83;;;;;;;5.45;100.00;94461.41;5056961;28;20576;-77
2021/01/28 11:28:50;;;;;;;1.10;1.00;;;;;;;5.42;100.00;94464.31;5056827;28;20225;-78
2021/01/28 11:31:19;;;;;;;2.63;1.20;;;;;;;5.37;100.00;94461.50;5056645;28;20194;-79
2021/01/28 11:33:46;;;;;;;1.10;1.00;;;;;;;5.39;100.00;94459.53;5057017;28;20783;-79
2021/01/28 11:36:13;;;;;;;1.30;1.20;;;;;;;5.38;100.00;94455.44;5056420;28;20257;-78
2021/01/28 11:38:42;;;;;;;1.03;1.00;;;;;;;5.45;100.00;94443.56;5054708;28;20225;-78
2021/01/28 11:41:08;;;;;;;1.50;1.10;;;;;;;5.38;100.00;94435.00;5053887;28;20752;-77
2021/01/28 11:43:34;;;;;;;1.47;1.00;;;;;;;5.40;100.00;94425.41;5053813;28;20201;-78
2021/01/28 11:46:00;;;;;;;0.93;0.90;;;;;;;5.41;100.00;94430.34;5053754;28;20236;-79
2021/01/28 11:48:26;;;;;;;0.93;0.93;;;;;;;5.48;100.00;94420.22;5053838;28;20253;-78
2021/01/28 11:50:52;;;;;;;2.50;1.20;;;;;;;5.45;100.00;94413.72;5053727;28;20827;-77
2021/01/28 11:53:20;;;;;;;1.10;0.93;;;;;;;5.41;100.00;94415.03;5052625;28;20673;-77
2021/01/28 11:55:47;;;;;;;1.80;1.00;;;;;;;5.41;100.00;94415.03;5051761;28;20252;-78